McNary Field
KSLE : rendu visible

Aérodrome :











RETROUVEZ-NOUS SUR...

 
LOGIN :

S'inscrire | Disclaimer

   EN    FR    IT 

 









Légende :    VFR   VFR Marginal   IFR   IFR Intensif   IFR Très Intensif
Visi : 
Plafond : 
>= 8 km
>= 3000ft
5 à 8 km
1000 à 3000 ft
1500m à 5 km
500 à 1000 ft
800 à 1500m
200 à 500 ft
< 800m
< 200 ft
Symboles :   Orages  Brouillard  Fortes neiges  Fortes précipitations  Vent > 20 kt






- Altitude de l'aérodrome : 214 ft


KSLE - McNary Field

DERNIER METAR :
  • 041856Z 35013KT 10SM CLR 19/07 A3008 RMK AO2 SLP187 T01890072

METARs EXPIRÉS :
  • 041756Z 01008KT 350V060 10SM SCT090 18/07 A3010 RMK AO2 SLP192 T01780072 10178 20106 58005
  • 041656Z 36010KT 10SM OVC075 16/06 A3011 RMK AO2 SLP197 T01560061

TAF KSLE
Valide du 04 à 18h jusqu'au 05 à 18h UTC


041730Z 0418/0518 36006KT P6SM BKN080
FM042000 01007KT P6SM SCT080
FM042300 01009KT P6SM SCT045 BKN200
FM050400 35004KT P6SM SCT250
FM051000 VRB02KT P6SM BKN200
FIR KZSE / Amérique du Nord



MET'MAP, la Météo Aéronautique d'un coup d'oeil ! - Copyright ORBIFLY Décembre 2007 - Disclaimer

ORBIFLY MET'MAP TEAM :

Programmation & Développement : Alexandra Zaïnal
Sur une idée originale de : Baudouin d'Aumeries
Assistance à la programmation : Marc-Olivier Méhu
Soutien technique & logistique : Manuel Goepfert

Contact : metmap@orbifly.com




SOURCES & CREDITS :

   NOAA       Earth
Advisory